createdAt,value
2023-01-22T00:00:31.239Z,19.23
2023-01-22T00:05:32.528Z,13.90
2023-01-22T00:10:33.811Z,16.95
2023-01-22T00:15:38.240Z,14.67
2023-01-22T00:20:41.615Z,15.82
2023-01-22T00:25:43.424Z,15.45
2023-01-22T00:30:44.708Z,15.73
2023-01-22T00:35:45.976Z,15.85
2023-01-22T00:40:47.246Z,15.93
2023-01-22T00:45:48.587Z,16.70
2023-01-22T00:50:49.970Z,17.20
2023-01-22T00:55:52.484Z,17.50
2023-01-22T01:00:54.372Z,14.90
2023-01-22T01:06:10.289Z,16.17
2023-01-22T01:11:13.304Z,15.23
2023-01-22T01:16:34.858Z,17.50
2023-01-22T01:21:36.210Z,14.88
2023-01-22T01:26:38.988Z,16.80
2023-01-22T01:31:40.249Z,14.37
2023-01-22T01:36:48.787Z,16.25
2023-01-22T01:41:51.296Z,21.60
2023-01-22T01:46:57.571Z,17.08
2023-01-22T01:52:06.428Z,18.10
2023-01-22T01:57:11.396Z,17.40
2023-01-22T02:02:12.750Z,18.95
2023-01-22T02:07:14.063Z,18.52
2023-01-22T02:12:15.381Z,16.63
2023-01-22T02:17:19.487Z,17.15
2023-01-22T02:22:21.968Z,20.37
2023-01-22T02:27:23.387Z,18.25
2023-01-22T02:32:24.714Z,20.15
2023-01-22T02:37:26.125Z,21.42
2023-01-22T02:42:28.028Z,19.48
2023-01-22T02:47:29.374Z,21.80
2023-01-22T02:52:30.683Z,22.27
2023-01-22T02:57:32.168Z,22.45
2023-01-22T03:02:33.490Z,24.23
2023-01-22T03:07:42.704Z,21.10
2023-01-22T03:13:02.983Z,20.97
2023-01-22T03:18:22.779Z,24.08
2023-01-22T03:23:27.818Z,20.98
2023-01-22T03:28:29.166Z,23.67
2023-01-22T03:33:30.637Z,21.48
2023-01-22T03:38:32.026Z,21.37
2023-01-22T03:43:33.921Z,24.40
2023-01-22T03:48:35.277Z,22.90
2023-01-22T03:53:36.711Z,23.05
2023-01-22T03:58:38.075Z,24.60
2023-01-22T04:03:39.476Z,21.03
2023-01-22T04:08:41.684Z,19.70
2023-01-22T04:13:43.637Z,21.90
2023-01-22T04:18:45.055Z,22.27
2023-01-22T04:23:46.346Z,24.15
2023-01-22T04:28:47.660Z,22.77
2023-01-22T04:33:48.892Z,23.05
2023-01-22T04:38:50.124Z,21.33
2023-01-22T04:43:51.403Z,23.17
2023-01-22T04:48:52.644Z,22.90
2023-01-22T04:53:53.928Z,18.27
2023-01-22T04:58:55.309Z,21.30
2023-01-22T05:03:56.598Z,20.08
2023-01-22T05:08:57.851Z,20.75
2023-01-22T05:13:59.076Z,22.00
2023-01-22T05:19:00.370Z,20.17
2023-01-22T05:24:01.611Z,19.88
2023-01-22T05:29:02.972Z,18.73
2023-01-22T05:34:04.413Z,20.23
2023-01-22T05:39:05.707Z,20.48
2023-01-22T05:44:07.244Z,19.80
2023-01-22T05:49:08.595Z,18.45
2023-01-22T05:54:10.011Z,18.30
2023-01-22T05:59:11.616Z,21.13
2023-01-22T06:04:12.825Z,22.70
2023-01-22T06:09:14.145Z,20.63
2023-01-22T06:14:15.484Z,17.75
2023-01-22T06:19:16.783Z,16.85
2023-01-22T06:24:18.506Z,17.95
2023-01-22T06:29:19.797Z,14.00
2023-01-22T06:34:21.054Z,15.23
2023-01-22T06:39:22.472Z,13.57
2023-01-22T06:44:23.788Z,15.68
2023-01-22T06:49:25.087Z,14.85
2023-01-22T06:54:26.326Z,15.52
2023-01-22T06:59:27.584Z,17.23
2023-01-22T07:04:28.864Z,16.27
2023-01-22T07:09:30.175Z,15.73
2023-01-22T07:14:36.725Z,18.55
2023-01-22T07:19:38.317Z,14.48
2023-01-22T07:24:39.587Z,14.23
2023-01-22T07:29:40.827Z,17.65
2023-01-22T07:34:42.113Z,17.73
2023-01-22T07:39:43.341Z,15.80
2023-01-22T07:44:44.581Z,16.20
2023-01-22T07:49:45.889Z,15.47
2023-01-22T07:54:47.233Z,20.70
2023-01-22T07:59:48.500Z,29.95
2023-01-22T08:04:49.781Z,15.60
2023-01-22T08:09:51.076Z,20.08
2023-01-22T08:14:52.350Z,20.03
2023-01-22T08:19:53.708Z,16.23
2023-01-22T08:24:55.295Z,18.60
2023-01-22T08:29:56.551Z,17.00
2023-01-22T08:34:57.858Z,16.20
2023-01-22T08:39:59.121Z,16.10
2023-01-22T08:45:00.395Z,20.13
2023-01-22T08:50:02.724Z,16.75
2023-01-22T08:55:06.662Z,15.07
2023-01-22T09:00:08.630Z,16.27
2023-01-22T09:05:10.038Z,15.20
2023-01-22T09:10:12.779Z,15.45
2023-01-22T09:15:15.076Z,14.85
2023-01-22T09:20:17.033Z,12.02
2023-01-22T09:25:18.503Z,16.23
2023-01-22T09:30:20.243Z,14.23
2023-01-22T09:35:22.010Z,15.02
2023-01-22T09:40:39.781Z,15.65
2023-01-22T09:45:41.183Z,27.48
2023-01-22T09:50:42.805Z,21.30
2023-01-22T09:55:46.137Z,14.93
2023-01-22T10:00:47.475Z,18.13
2023-01-22T10:05:51.340Z,22.02
2023-01-22T10:10:52.736Z,17.52
2023-01-22T10:15:54.636Z,17.27
2023-01-22T10:20:57.103Z,20.10
2023-01-22T10:26:10.896Z,25.95
2023-01-22T10:31:31.848Z,15.85
2023-01-22T10:36:33.213Z,13.32
2023-01-22T10:41:34.569Z,15.40
2023-01-22T10:46:35.904Z,15.20
2023-01-22T10:51:42.138Z,14.80
2023-01-22T10:56:43.796Z,31.85
2023-01-22T11:01:48.065Z,30.88
2023-01-22T11:06:51.511Z,15.38
2023-01-22T11:12:15.904Z,48.30
2023-01-22T11:17:23.590Z,15.02
2023-01-22T11:22:27.486Z,18.10
2023-01-22T11:27:31.932Z,11.52
2023-01-22T11:32:46.638Z,14.13
2023-01-22T11:38:06.347Z,13.10
2023-01-22T11:43:20.613Z,10.07
2023-01-22T11:48:44.974Z,12.55
2023-01-22T11:54:05.162Z,11.23
2023-01-22T11:59:25.391Z,39.65
2023-01-22T12:04:45.519Z,20.17
2023-01-22T12:09:57.614Z,14.57
2023-01-22T12:15:17.827Z,13.23
2023-01-22T12:20:38.248Z,15.80
2023-01-22T12:25:51.364Z,20.35
2023-01-22T12:31:03.524Z,13.47
2023-01-22T12:36:06.317Z,21.20
2023-01-22T12:41:07.662Z,16.90
2023-01-22T12:46:12.201Z,12.68
2023-01-22T12:51:32.276Z,21.60
2023-01-22T12:56:33.831Z,14.53
2023-01-22T13:01:35.724Z,15.88
2023-01-22T13:06:38.250Z,13.73
2023-01-22T13:11:39.825Z,10.25
2023-01-22T13:16:41.525Z,14.55
2023-01-22T13:21:42.982Z,18.00
2023-01-22T13:26:52.143Z,10.63
2023-01-22T13:31:54.130Z,21.60
2023-01-22T13:36:55.620Z,12.93
2023-01-22T13:41:58.708Z,10.73
2023-01-22T13:47:00.125Z,11.43
2023-01-22T13:52:06.008Z,12.68
2023-01-22T13:57:07.323Z,11.35
2023-01-22T14:02:28.668Z,12.60
2023-01-22T14:07:29.980Z,16.00
2023-01-22T14:12:31.284Z,15.37
2023-01-22T14:17:36.417Z,15.88
2023-01-22T14:22:37.889Z,14.57
2023-01-22T14:27:41.512Z,15.98
2023-01-22T14:32:43.157Z,15.23
2023-01-22T14:37:44.848Z,16.53
2023-01-22T14:42:46.865Z,23.48
2023-01-22T14:47:52.371Z,19.35
2023-01-22T14:52:53.868Z,19.98
2023-01-22T14:57:57.283Z,20.75
2023-01-22T15:02:59.225Z,14.67
2023-01-22T15:08:01.423Z,14.30
2023-01-22T15:13:02.666Z,17.27
2023-01-22T15:18:03.967Z,14.68
2023-01-22T15:23:05.266Z,11.50
2023-01-22T15:28:06.544Z,13.27
2023-01-22T15:33:07.829Z,11.10
2023-01-22T15:38:09.136Z,12.20
2023-01-22T15:43:10.447Z,12.57
2023-01-22T15:48:13.852Z,15.63
2023-01-22T15:53:15.163Z,15.67
2023-01-22T15:58:16.439Z,13.07
2023-01-22T16:03:17.690Z,15.45
2023-01-22T16:08:18.982Z,16.20
2023-01-22T16:13:20.257Z,20.27
2023-01-22T16:18:21.571Z,20.73
2023-01-22T16:23:22.849Z,16.70
2023-01-22T16:28:24.275Z,13.48
2023-01-22T16:33:27.764Z,15.00
2023-01-22T16:38:29.423Z,12.68
2023-01-22T16:43:30.699Z,14.27
2023-01-22T16:48:32.024Z,14.20
2023-01-22T16:53:33.604Z,14.55
2023-01-22T16:58:34.859Z,16.88
2023-01-22T17:03:36.137Z,23.27
2023-01-22T17:08:37.460Z,14.77
2023-01-22T17:13:38.759Z,16.02
2023-01-22T17:18:40.014Z,13.80
2023-01-22T17:23:41.420Z,16.33
2023-01-22T17:28:42.705Z,14.18
2023-01-22T17:33:44.450Z,13.97
2023-01-22T17:38:45.858Z,14.13
2023-01-22T17:43:47.792Z,16.38
2023-01-22T17:48:50.951Z,16.20
2023-01-22T17:53:52.807Z,12.85
2023-01-22T17:58:55.419Z,12.60
2023-01-22T18:03:57.760Z,13.73
2023-01-22T18:08:59.081Z,18.08
2023-01-22T18:14:02.009Z,16.42
2023-01-22T18:19:05.531Z,21.30
2023-01-22T18:24:08.108Z,31.43
2023-01-22T18:29:09.909Z,28.27
2023-01-22T18:34:13.582Z,17.58
2023-01-22T18:39:16.387Z,21.65
2023-01-22T18:44:19.508Z,24.13
2023-01-22T18:49:22.795Z,16.50
2023-01-22T18:54:24.248Z,17.92
2023-01-22T18:59:25.591Z,16.08
2023-01-22T19:04:28.673Z,20.33
2023-01-22T19:09:31.641Z,24.30
2023-01-22T19:14:33.050Z,24.60
2023-01-22T19:19:34.312Z,22.15
2023-01-22T19:24:35.564Z,38.60
2023-01-22T19:29:36.793Z,28.75
2023-01-22T19:34:38.225Z,26.08
2023-01-22T19:39:41.741Z,58.17
2023-01-22T19:44:43.163Z,41.17
2023-01-22T19:49:44.554Z,39.20
2023-01-22T19:54:48.123Z,40.88
2023-01-22T19:59:58.168Z,49.50
2023-01-22T20:04:59.473Z,49.67
2023-01-22T20:10:00.785Z,41.97
2023-01-22T20:15:02.227Z,43.10
2023-01-22T20:20:04.979Z,31.33
2023-01-22T20:25:08.025Z,24.52
2023-01-22T20:30:09.628Z,23.27
2023-01-22T20:35:15.372Z,18.83
2023-01-22T20:40:16.858Z,20.40
2023-01-22T20:45:18.481Z,19.00
2023-01-22T20:50:19.998Z,18.67
2023-01-22T20:55:21.411Z,18.47
2023-01-22T21:00:22.740Z,19.55
2023-01-22T21:05:24.077Z,17.67
2023-01-22T21:10:25.452Z,17.80
2023-01-22T21:15:26.943Z,20.58
2023-01-22T21:20:28.261Z,19.13
2023-01-22T21:25:29.565Z,20.58
2023-01-22T21:30:30.995Z,19.95
2023-01-22T21:35:32.282Z,24.55
2023-01-22T21:40:33.598Z,22.42
2023-01-22T21:45:53.454Z,22.43
2023-01-22T21:50:54.937Z,18.30
2023-01-22T21:55:56.228Z,19.60
2023-01-22T22:01:07.217Z,17.88
2023-01-22T22:06:10.488Z,20.73
2023-01-22T22:11:13.548Z,27.50
2023-01-22T22:16:15.135Z,30.55
2023-01-22T22:21:16.491Z,26.95
2023-01-22T22:26:18.203Z,27.45
2023-01-22T22:31:19.950Z,22.70
2023-01-22T22:36:22.822Z,24.23
2023-01-22T22:41:25.747Z,25.65
2023-01-22T22:46:27.051Z,24.80
2023-01-22T22:51:30.100Z,23.92
2023-01-22T22:56:31.768Z,19.95
2023-01-22T23:01:33.222Z,20.33
2023-01-22T23:06:35.752Z,19.50
2023-01-22T23:11:37.206Z,20.63
2023-01-22T23:16:40.348Z,19.13
2023-01-22T23:21:42.055Z,17.85
2023-01-22T23:26:44.045Z,17.77
2023-01-22T23:31:45.470Z,23.30
2023-01-22T23:36:47.835Z,17.55
2023-01-22T23:41:49.476Z,17.20
2023-01-22T23:46:50.722Z,18.42
2023-01-22T23:51:52.010Z,18.93
2023-01-22T23:56:53.336Z,27.98
